Time;durP1;ratioP1;P1;durP2;ratioP2;P2;SDS_P1;SDS_P2;PMS_P1;PMS_P2;Temp;Humidity;BMP_temperature;BMP_pressure;BME280_temperature;BME280_humidity;BME280_pressure;Samples;Min_cycle;Max_cycle;Signal;HPM_P1;HPM_P2
2023/07/08 04:31:01;;;;;;;;;2.50;2.50;;;;;32.26;34.42;100837.66;5019529;27;45553;-76
2023/07/08 04:33:28;;;;;;;;;6.50;6.25;;;;;32.17;33.92;100839.78;4994760;28;45519;-76
2023/07/08 04:35:54;;;;;;;;;1.75;1.75;;;;;32.21;34.33;100854.94;4978794;28;45420;-77
2023/07/08 04:38:22;;;;;;;;;2.25;2.25;;;;;32.21;34.12;100870.75;4990999;28;45194;-77
2023/07/08 04:40:49;;;;;;;;;4.00;4.00;;;;;32.22;34.54;100864.13;4978393;28;45644;-76
2023/07/08 04:43:14;;;;;;;;;2.50;0.75;;;;;32.10;34.42;100849.09;4977926;28;45437;-75
2023/07/08 04:45:43;;;;;;;;;1.75;1.75;;;;;32.14;34.33;100869.84;4976991;28;45484;-74
2023/07/08 04:48:13;;;;;;;;;1.00;1.00;;;;;32.06;34.64;100867.25;4978088;28;45390;-75
2023/07/08 04:50:43;;;;;;;;;2.00;2.00;;;;;32.02;35.26;100872.34;4978209;28;45576;-76
2023/07/08 04:53:10;;;;;;;;;3.00;2.75;;;;;32.04;35.41;100874.91;4977794;28;45287;-76
2023/07/08 04:55:42;;;;;;;;;2.00;2.00;;;;;32.04;35.30;100886.84;4978199;28;45350;-75
2023/07/08 04:58:08;;;;;;;;;1.75;1.75;;;;;31.97;35.35;100888.75;4977861;28;45307;-75
2023/07/08 05:00:33;;;;;;;;;3.00;3.00;;;;;31.87;36.29;100883.59;4977866;28;45333;-77
2023/07/08 05:02:58;;;;;;;;;2.75;2.75;;;;;31.97;36.26;100910.09;4977254;28;46299;-74
2023/07/08 05:05:23;;;;;;;;;4.25;3.00;;;;;31.80;36.78;100901.25;4977653;28;45408;-75
2023/07/08 05:07:49;;;;;;;;;2.00;2.00;;;;;31.73;37.01;100905.91;4977948;28;45270;-76
2023/07/08 05:10:15;;;;;;;;;5.00;2.00;;;;;31.65;37.28;100911.59;4986074;28;45489;-76
2023/07/08 05:12:41;;;;;;;;;2.00;2.00;;;;;31.52;37.00;100915.09;4996165;28;46027;-78
2023/07/08 05:15:07;;;;;;;;;3.00;3.00;;;;;31.51;37.43;100903.16;4996527;28;45338;-75
2023/07/08 05:17:32;;;;;;;;;2.00;2.00;;;;;31.42;37.11;100870.28;4991921;28;45659;-75
2023/07/08 05:20:00;;;;;;;;;2.75;1.25;;;;;31.73;36.50;100892.88;4976275;28;45402;-75
2023/07/08 05:22:26;;;;;;;;;2.25;2.25;;;;;31.79;36.72;100905.06;4976960;28;46385;-76
2023/07/08 05:24:55;;;;;;;;;2.50;1.75;;;;;31.83;36.42;100917.47;4977089;28;45506;-74
2023/07/08 05:27:22;;;;;;;;;2.75;1.25;;;;;31.84;36.08;100935.81;4977329;28;45510;-76
2023/07/08 05:29:47;;;;;;;;;2.50;2.50;;;;;31.87;36.26;100936.28;4977508;28;45734;-74
2023/07/08 05:32:13;;;;;;;;;2.00;2.00;;;;;31.91;36.21;100954.19;4991070;28;46875;-77
2023/07/08 05:34:38;;;;;;;;;2.25;2.25;;;;;31.98;35.86;100945.94;4996105;28;45309;-77
2023/07/08 05:37:04;;;;;;;;;2.00;2.00;;;;;31.99;35.94;100946.75;4996586;28;45266;-77
2023/07/08 05:39:30;;;;;;;;;1.75;1.75;;;;;32.12;36.07;100966.28;4997012;28;45623;-76
2023/07/08 05:41:55;;;;;;;;;3.25;3.00;;;;;32.12;35.25;100960.72;4996862;28;45983;-77
2023/07/08 05:44:21;;;;;;;;;2.25;2.25;;;;;32.08;35.42;100965.81;4996989;28;45321;-77
2023/07/08 05:46:46;;;;;;;;;3.00;3.00;;;;;32.14;35.62;100964.16;4992348;28;45286;-74
2023/07/08 05:49:11;;;;;;;;;2.25;2.25;;;;;32.14;35.91;100980.81;4996448;28;45810;-75
2023/07/08 05:51:37;;;;;;;;;2.75;2.75;;;;;32.05;35.32;100982.88;5002656;28;46425;-74
2023/07/08 05:54:03;;;;;;;;;3.00;1.50;;;;;32.10;35.47;100987.81;4996142;28;45333;-76
2023/07/08 05:56:30;;;;;;;;;2.00;2.00;;;;;32.24;35.48;100993.25;4995724;28;45494;-77
2023/07/08 05:58:56;;;;;;;;;1.75;1.75;;;;;32.29;34.89;100989.88;4997040;28;45527;-73
2023/07/08 06:01:22;;;;;;;;;0.00;0.00;;;;;32.26;35.41;100987.50;4995987;28;46041;-75
2023/07/08 06:03:47;;;;;;;;;3.75;3.00;;;;;32.34;35.43;101006.75;4976271;28;45441;-77
2023/07/08 06:06:13;;;;;;;;;3.75;2.75;;;;;32.29;35.49;101015.69;4995761;28;45511;-76
2023/07/08 06:08:38;;;;;;;;;0.75;0.75;;;;;32.35;35.24;101007.59;4996167;28;45468;-74
2023/07/08 06:11:04;;;;;;;;;0.25;0.25;;;;;32.33;34.93;101021.69;4999200;28;46000;-76
2023/07/08 06:13:29;;;;;;;;;2.00;2.00;;;;;32.22;35.62;101025.06;5015086;28;45396;-77
2023/07/08 06:15:55;;;;;;;;;2.00;2.00;;;;;32.37;35.60;101030.47;5001090;28;45487;-75
2023/07/08 06:18:21;;;;;;;;;2.00;2.00;;;;;32.45;34.85;101030.28;4996334;28;45434;-73
2023/07/08 06:20:57;;;;;;;;;1.50;1.50;;;;;32.48;35.05;101050.16;4995805;28;45616;-77
2023/07/08 06:23:23;;;;;;;;;2.00;2.00;;;;;32.53;35.02;101046.75;4996592;28;45429;-79
2023/07/08 06:25:49;;;;;;;;;0.75;0.75;;;;;32.49;35.17;101042.69;4996808;28;45442;-81
2023/07/08 06:28:14;;;;;;;;;1.75;1.75;;;;;32.54;34.79;101052.13;4996662;28;45515;-80
2023/07/08 06:30:39;;;;;;;;;3.00;3.00;;;;;32.68;35.02;101059.44;4996014;28;46242;-75
2023/07/08 06:33:05;;;;;;;;;3.00;3.00;;;;;32.60;34.52;101056.84;5005204;28;45268;-75
2023/07/08 06:35:30;;;;;;;;;2.00;2.00;;;;;32.50;34.86;101066.59;5016047;28;45321;-78
2023/07/08 06:37:55;;;;;;;;;2.00;1.25;;;;;32.57;34.55;101078.63;5012566;28;45295;-75
2023/07/08 06:40:21;;;;;;;;;3.00;3.00;;;;;32.63;34.13;101078.63;4996004;28;49227;-77
2023/07/08 06:42:46;;;;;;;;;1.25;1.00;;;;;32.43;34.90;101076.81;4996320;28;49256;-75
2023/07/08 06:45:11;;;;;;;;;3.00;3.00;;;;;32.26;35.11;101060.50;5010977;28;45181;-77
2023/07/08 06:47:37;;;;;;;;;2.50;2.50;;;;;32.05;35.70;101088.28;4994554;28;45400;-77
2023/07/08 06:50:06;;;;;;;;;2.00;2.00;;;;;32.00;35.23;101081.63;4995352;28;46203;-78
2023/07/08 06:52:35;;;;;;;;;2.00;2.00;;;;;32.05;35.58;101084.66;4985733;28;45412;-78
2023/07/08 06:55:03;;;;;;;;;0.00;0.00;;;;;32.15;34.90;101087.94;4995747;28;45523;-78
2023/07/08 06:57:29;;;;;;;;;4.25;1.25;;;;;32.02;35.64;101091.47;4995823;28;45353;-77
2023/07/08 06:59:54;;;;;;;;;3.25;3.25;;;;;32.18;35.52;101088.41;4994364;28;46144;-77
2023/07/08 07:02:20;;;;;;;;;2.00;2.00;;;;;32.33;35.25;101100.25;4995753;28;45425;-78
2023/07/08 07:04:45;;;;;;;;;2.00;2.00;;;;;32.46;34.68;101104.16;4995624;28;45313;-77
2023/07/08 07:07:11;;;;;;;;;3.00;1.75;;;;;32.36;34.34;101089.78;4995542;28;45230;-77
2023/07/08 07:09:36;;;;;;;;;2.00;2.00;;;;;32.42;34.31;101100.06;5000831;28;46443;-77
2023/07/08 07:12:05;;;;;;;;;3.75;2.50;;;;;32.25;34.37;101102.31;5013678;28;45458;-78
2023/07/08 07:14:31;;;;;;;;;1.75;1.50;;;;;32.22;34.61;101094.41;5013545;28;45542;-76
2023/07/08 07:16:56;;;;;;;;;1.00;1.00;;;;;32.34;34.40;101103.88;5014677;28;45317;-76
2023/07/08 07:19:21;;;;;;;;;1.75;1.75;;;;;32.44;33.92;101095.19;5013970;28;52992;-76
2023/07/08 07:21:47;;;;;;;;;2.75;2.75;;;;;32.51;33.63;101115.50;5015015;28;45299;-77
2023/07/08 07:24:12;;;;;;;;;2.75;2.00;;;;;32.54;33.74;101104.00;5014354;28;45465;-76
2023/07/08 07:26:38;;;;;;;;;2.50;2.50;;;;;32.57;33.81;101106.38;5014821;28;45514;-77
2023/07/08 07:29:03;;;;;;;;;2.00;2.00;;;;;32.64;33.79;101099.78;5015011;28;45394;-76
2023/07/08 07:31:29;;;;;;;;;2.50;2.50;;;;;32.81;33.06;101094.78;5014942;28;45289;-78
2023/07/08 07:33:54;;;;;;;;;1.25;1.25;;;;;32.96;33.18;101091.84;5013841;28;45481;-76
2023/07/08 07:36:20;;;;;;;;;2.25;2.25;;;;;33.05;33.08;101105.34;4995350;28;45332;-78
2023/07/08 07:38:45;;;;;;;;;2.00;2.00;;;;;33.17;32.65;101100.03;4993718;28;45668;-77
2023/07/08 07:41:12;;;;;;;;;1.25;1.25;;;;;33.09;33.21;101111.34;4994190;28;45566;-75
2023/07/08 07:43:38;;;;;;;;;2.00;2.00;;;;;33.09;33.53;101113.28;4994963;28;45411;-78
2023/07/08 07:46:05;;;;;;;;;1.50;1.50;;;;;33.26;32.81;101109.91;4994954;28;45518;-76
2023/07/08 07:48:30;;;;;;;;;2.25;2.00;;;;;33.33;33.04;101108.03;4992743;28;45502;-75
2023/07/08 07:50:56;;;;;;;;;3.00;2.50;;;;;33.36;32.58;101102.03;4980718;28;45354;-78
2023/07/08 07:53:21;;;;;;;;;1.00;1.00;;;;;33.46;32.66;101095.19;4993570;28;45471;-76
2023/07/08 07:55:46;;;;;;;;;1.75;1.75;;;;;33.51;33.19;101101.84;4994963;28;45235;-76
2023/07/08 07:58:12;;;;;;;;;3.00;2.00;;;;;33.58;32.89;101104.63;4993494;28;45889;-76
2023/07/08 08:00:38;;;;;;;;;3.25;3.25;;;;;33.46;32.74;101103.53;4994825;28;45423;-76
2023/07/08 08:03:04;;;;;;;;;3.75;2.25;;;;;33.35;33.08;101118.91;4994248;28;45450;-76
2023/07/08 08:05:29;;;;;;;;;2.75;2.75;;;;;33.54;32.56;101118.09;4976290;28;46182;-77
2023/07/08 08:07:54;;;;;;;;;3.25;2.75;;;;;33.63;32.40;101119.59;4994610;28;45487;-76
2023/07/08 08:10:20;;;;;;;;;2.25;2.25;;;;;33.53;32.93;101093.28;4993759;28;45325;-78
2023/07/08 08:12:47;;;;;;;;;2.50;2.50;;;;;33.75;32.93;101122.66;4994527;28;45276;-76
2023/07/08 08:15:12;;;;;;;;;3.50;3.50;;;;;33.66;32.81;101127.53;4994797;28;45472;-76
2023/07/08 08:17:38;;;;;;;;;2.00;2.00;;;;;33.74;32.45;101115.38;4993995;28;46169;-76
2023/07/08 08:20:04;;;;;;;;;3.00;3.00;;;;;33.78;32.53;101119.44;5006351;28;45348;-77
2023/07/08 08:22:29;;;;;;;;;5.25;4.00;;;;;33.97;32.31;101129.72;4996462;28;45353;-76
2023/07/08 08:24:54;;;;;;;;;3.75;3.00;;;;;33.96;32.42;101128.00;5014300;28;46620;-70
2023/07/08 08:27:20;;;;;;;;;3.00;3.00;;;;;33.85;32.83;101139.78;4996314;28;47210;-77
2023/07/08 08:29:45;;;;;;;;;1.50;1.50;;;;;33.73;33.15;101147.91;5014636;28;45277;-74
2023/07/08 08:32:10;;;;;;;;;3.50;3.50;;;;;33.88;33.08;101146.81;4997635;28;45310;-74
2023/07/08 08:34:36;;;;;;;;;3.25;3.25;;;;;34.04;32.68;101152.81;4994679;28;45470;-75
2023/07/08 08:37:03;;;;;;;;;2.75;2.75;;;;;34.10;32.27;101159.47;4978755;28;46068;-74
2023/07/08 08:39:29;;;;;;;;;3.00;3.00;;;;;34.01;31.98;101160.75;4997797;28;45685;-75
2023/07/08 08:41:56;;;;;;;;;4.75;3.00;;;;;33.71;32.85;101152.78;4994004;28;45532;-73
2023/07/08 08:44:34;;;;;;;;;2.50;2.50;;;;;33.93;32.85;101150.69;4994137;28;45320;-75
2023/07/08 08:47:26;;;;;;;;;4.75;4.75;;;;;33.73;33.34;101149.81;4988925;28;45541;-73
2023/07/08 08:50:00;;;;;;;;;4.25;3.00;;;;;33.59;33.53;101148.06;4994000;28;45342;-74
2023/07/08 08:52:25;;;;;;;;;4.25;4.25;;;;;33.71;33.02;101141.66;4993740;28;45364;-75
2023/07/08 08:54:51;;;;;;;;;4.00;4.00;;;;;33.95;33.27;101148.53;4994051;28;45593;-73
2023/07/08 08:57:53;;;;;;;;;5.25;4.50;;;;;33.99;33.58;101146.19;4992894;28;45958;-70
2023/07/08 09:00:29;;;;;;;;;3.00;3.00;;;;;34.23;32.94;101166.94;4994143;28;45378;-74
2023/07/08 09:03:01;;;;;;;;;1.00;1.00;;;;;34.13;33.11;101159.03;5001020;28;45362;-70
2023/07/08 09:05:27;;;;;;;;;4.00;4.00;;;;;34.04;33.08;101151.97;5014224;28;45289;-72
2023/07/08 09:08:18;;;;;;;;;5.75;4.75;;;;;33.68;33.64;101156.00;5006674;28;45424;-71
2023/07/08 09:11:00;;;;;;;;;4.50;4.50;;;;;34.00;33.83;101159.03;4992794;28;45562;-72
2023/07/08 09:13:31;;;;;;;;;4.25;4.25;;;;;33.81;34.02;101155.19;4974894;28;45403;-72
2023/07/08 09:16:26;;;;;;;;;4.75;4.50;;;;;34.12;33.01;101165.66;4989042;28;45246;-72
2023/07/08 09:19:05;;;;;;;;;4.50;4.25;;;;;34.23;33.13;101155.81;4993666;28;45464;-71
2023/07/08 09:21:41;;;;;;;;;6.00;6.00;;;;;34.30;33.41;101146.41;4994587;28;45392;-72
2023/07/08 09:24:18;;;;;;;;;4.75;4.75;;;;;34.08;33.22;101153.25;4997253;28;45538;-73
2023/07/08 09:26:46;;;;;;;;;5.75;5.75;;;;;34.28;33.42;101148.59;5016850;28;45320;-74
2023/07/08 09:29:12;;;;;;;;;4.25;4.25;;;;;34.54;32.76;101147.66;5016638;28;45431;-77
2023/07/08 09:31:41;;;;;;;;;7.00;5.25;;;;;34.66;32.62;101162.63;5016416;28;45316;-76
2023/07/08 09:34:20;;;;;;;;;6.00;4.25;;;;;34.94;32.23;101154.03;5016975;28;45336;-75
2023/07/08 09:36:47;;;;;;;;;7.25;6.00;;;;;35.01;31.32;101156.78;5016785;28;45339;-75
2023/07/08 09:39:16;;;;;;;;;3.75;3.75;;;;;34.84;31.69;101156.41;5002490;28;46299;-74
2023/07/08 09:41:44;;;;;;;;;5.00;5.00;;;;;34.63;32.34;101156.63;4996860;28;45427;-73
2023/07/08 09:44:33;;;;;;;;;4.50;4.00;;;;;34.86;32.78;101154.28;4996946;28;45385;-76
2023/07/08 09:46:58;;;;;;;;;5.50;4.50;;;;;35.11;32.14;101160.81;4996392;28;45548;-74
2023/07/08 09:49:28;;;;;;;;;5.00;5.00;;;;;35.21;32.02;101154.78;4996651;28;45613;-73
2023/07/08 09:51:54;;;;;;;;;3.25;3.25;;;;;35.25;31.66;101154.13;4996330;28;45486;-73
2023/07/08 09:54:22;;;;;;;;;4.75;2.75;;;;;35.23;31.26;101152.63;4997123;28;45338;-74
2023/07/08 09:57:34;;;;;;;;;4.50;4.50;;;;;35.25;31.54;101150.47;4996559;28;45589;-76
2023/07/08 10:00:06;;;;;;;;;2.75;2.75;;;;;35.15;31.23;101147.28;5012784;28;45364;-75
2023/07/08 10:02:52;;;;;;;;;3.50;3.50;;;;;35.03;31.21;101133.19;5016161;28;45446;-74
2023/07/08 10:05:37;;;;;;;;;6.75;3.50;;;;;35.02;31.00;101136.19;5017106;28;45498;-74
2023/07/08 10:08:14;;;;;;;;;5.50;4.50;;;;;35.10;31.34;101124.78;5016102;28;45519;-75
2023/07/08 10:10:41;;;;;;;;;5.00;5.00;;;;;35.24;30.89;101126.44;5016665;28;45339;-74
2023/07/08 10:13:19;;;;;;;;;5.00;4.00;;;;;35.33;30.99;101135.41;5016033;28;45225;-76
2023/07/08 10:15:51;;;;;;;;;3.75;3.75;;;;;35.36;30.93;101116.31;5016599;28;45525;-74
2023/07/08 10:18:28;;;;;;;;;4.00;4.00;;;;;35.38;30.94;101116.97;5016313;28;45339;-75
2023/07/08 10:21:08;;;;;;;;;2.75;2.75;;;;;35.42;31.34;101137.72;5015994;28;45386;-74
2023/07/08 10:23:53;;;;;;;;;5.75;4.00;;;;;35.44;30.83;101124.41;5016144;28;45380;-74
2023/07/08 10:26:31;;;;;;;;;3.25;3.25;;;;;35.61;30.85;101135.88;5011998;28;45384;-71
2023/07/08 10:29:30;;;;;;;;;3.50;3.50;;;;;35.60;31.14;101132.25;5014141;28;45467;-72
2023/07/08 10:32:23;;;;;;;;;4.00;4.00;;;;;35.72;31.17;101132.41;4995357;28;45512;-75
2023/07/08 10:34:57;;;;;;;;;4.00;4.00;;;;;35.50;30.53;101133.81;4995444;28;45427;-73
2023/07/08 10:37:41;;;;;;;;;4.25;4.00;;;;;35.56;31.26;101139.34;4995706;28;45361;-69
2023/07/08 10:40:18;;;;;;;;;4.25;4.25;;;;;35.74;30.74;101132.16;4990783;28;45289;-73
2023/07/08 10:42:57;;;;;;;;;6.50;5.00;;;;;35.86;29.92;101141.53;4995995;28;45306;-71
2023/07/08 10:46:01;;;;;;;;;4.50;4.50;;;;;35.83;29.83;101139.19;4995253;28;45387;-70
2023/07/08 10:48:28;;;;;;;;;4.25;4.25;;;;;36.02;30.13;101129.78;4995963;28;45424;-71
2023/07/08 10:51:06;;;;;;;;;4.75;4.75;;;;;36.08;30.17;101139.19;4995977;28;45536;-73
2023/07/08 10:53:56;;;;;;;;;4.75;4.25;;;;;36.02;29.81;101140.97;4995336;28;46065;-72
2023/07/08 10:56:54;;;;;;;;;4.25;4.25;;;;;36.03;30.38;101139.88;4995573;28;45611;-72
2023/07/08 10:59:37;;;;;;;;;6.75;5.00;;;;;36.00;29.64;101141.19;4996042;28;45415;-75
2023/07/08 11:02:18;;;;;;;;;6.75;6.75;;;;;36.03;29.87;101149.13;4995614;28;45376;-75
2023/07/08 11:05:17;;;;;;;;;6.00;6.00;;;;;36.05;29.87;101134.06;4995479;28;46193;-79
2023/07/08 11:07:50;;;;;;;;;5.00;5.00;;;;;36.14;29.53;101127.97;4995480;28;45405;-74
2023/07/08 11:11:02;;;;;;;;;6.50;5.00;;;;;36.24;29.91;101127.50;4995691;28;45483;-73
2023/07/08 11:13:30;;;;;;;;;4.75;4.75;;;;;36.38;29.92;101126.28;4992204;28;45301;-71
2023/07/08 11:16:12;;;;;;;;;8.25;6.00;;;;;36.35;30.02;101118.34;4995774;28;45436;-74
2023/07/08 11:19:17;;;;;;;;;4.25;4.00;;;;;36.43;29.94;101126.41;4996239;28;45494;-74
2023/07/08 11:21:48;;;;;;;;;8.00;6.00;;;;;36.53;30.14;101118.38;4996256;28;45383;-73
2023/07/08 11:24:36;;;;;;;;;6.25;6.25;;;;;36.54;29.86;101114.50;4995388;28;45504;-72
2023/07/08 11:27:33;;;;;;;;;4.75;4.75;;;;;36.60;29.67;101116.34;4996216;28;46201;-71
2023/07/08 11:30:10;;;;;;;;;7.50;6.00;;;;;36.71;30.10;101110.03;4974580;28;45409;-72
2023/07/08 11:32:38;;;;;;;;;5.00;4.25;;;;;36.70;29.54;101116.69;4995369;28;45478;-72
2023/07/08 11:35:07;;;;;;;;;5.75;5.75;;;;;36.81;29.55;101103.88;4995500;28;45472;-73
2023/07/08 11:37:34;;;;;;;;;6.50;5.00;;;;;36.75;28.99;101099.22;4995702;28;46128;-72
2023/07/08 11:40:17;;;;;;;;;6.00;6.00;;;;;36.90;29.45;101116.47;4995611;28;45312;-71
2023/07/08 11:42:47;;;;;;;;;5.50;5.00;;;;;36.89;28.91;101111.97;4995459;28;45337;-72
2023/07/08 11:45:27;;;;;;;;;6.00;4.50;;;;;36.83;28.85;101104.53;4995430;28;45915;-73
2023/07/08 11:47:53;;;;;;;;;7.00;5.25;;;;;36.86;28.55;101111.56;5015503;28;45319;-71
2023/07/08 11:50:29;;;;;;;;;5.25;5.25;;;;;36.93;28.03;101104.78;5013507;28;45352;-72
2023/07/08 11:53:06;;;;;;;;;6.50;5.25;;;;;37.03;27.82;101095.84;4995333;28;45269;-75
2023/07/08 11:55:54;;;;;;;;;5.25;5.25;;;;;37.09;28.13;101092.13;4996355;28;45326;-71
2023/07/08 11:58:26;;;;;;;;;5.75;5.75;;;;;37.12;28.13;101091.63;4995387;28;45317;-73
2023/07/08 12:01:02;;;;;;;;;6.00;4.75;;;;;37.20;27.77;101088.53;4993920;28;45449;-73
2023/07/08 12:03:37;;;;;;;;;4.25;4.25;;;;;37.23;27.38;101090.88;4995454;28;45321;-72
2023/07/08 12:06:26;;;;;;;;;5.00;3.50;;;;;37.25;27.73;101073.88;4995168;28;45495;-73
2023/07/08 12:08:56;;;;;;;;;5.25;4.75;;;;;37.23;28.07;101065.72;5014290;28;47089;-73
2023/07/08 12:11:31;;;;;;;;;7.00;5.25;;;;;37.37;27.79;101075.59;5014275;28;45484;-72
2023/07/08 12:13:59;;;;;;;;;5.00;5.00;;;;;37.37;27.55;101084.00;5014625;28;45440;-71
2023/07/08 12:16:26;;;;;;;;;5.25;5.00;;;;;37.35;26.96;101080.56;4996380;28;45589;-73
2023/07/08 12:18:52;;;;;;;;;4.25;4.25;;;;;37.42;26.65;101077.69;5014721;28;46667;-73
2023/07/08 12:21:18;;;;;;;;;3.50;3.50;;;;;37.42;26.46;101078.53;5014531;28;45348;-73
2023/07/08 12:23:45;;;;;;;;;5.00;5.00;;;;;37.47;26.19;101061.03;5014627;28;45300;-72
2023/07/08 12:26:11;;;;;;;;;4.75;4.75;;;;;37.50;26.26;101063.38;5014779;28;45578;-73
2023/07/08 12:28:38;;;;;;;;;5.50;5.00;;;;;37.65;26.81;101060.97;4996805;28;47134;-74
2023/07/08 12:31:14;;;;;;;;;4.75;4.00;;;;;37.69;26.40;101067.78;5014191;28;45390;-73
2023/07/08 12:33:40;;;;;;;;;6.25;4.75;;;;;37.74;26.64;101079.13;5015013;28;45292;-72
2023/07/08 12:36:09;;;;;;;;;4.50;4.50;;;;;37.79;26.79;101072.78;5014700;28;45202;-74
2023/07/08 12:38:41;;;;;;;;;5.50;5.50;;;;;37.93;26.91;101079.03;5005163;28;46404;-72
2023/07/08 12:41:12;;;;;;;;;3.00;3.00;;;;;37.92;27.01;101063.31;4977180;28;45488;-73
2023/07/08 12:43:38;;;;;;;;;8.00;8.00;;;;;38.00;26.97;101085.38;4994680;28;45483;-73
2023/07/08 12:46:03;;;;;;;;;6.25;5.00;;;;;38.01;26.63;101081.47;4994562;28;45586;-73
2023/07/08 12:48:39;;;;;;;;;5.25;5.25;;;;;38.03;26.35;101074.50;4994362;28;46077;-73
2023/07/08 12:51:09;;;;;;;;;4.00;4.00;;;;;38.11;26.19;101071.38;4994682;28;45485;-73
2023/07/08 12:53:35;;;;;;;;;5.50;5.50;;;;;38.05;26.31;101058.34;4994211;28;45381;-72
2023/07/08 12:56:01;;;;;;;;;4.00;4.00;;;;;38.12;25.81;101069.44;4994524;28;45286;-72
2023/07/08 12:58:29;;;;;;;;;4.50;4.50;;;;;38.23;26.24;101066.63;4997761;28;45445;-74
2023/07/08 13:00:57;;;;;;;;;5.00;5.00;;;;;38.20;25.94;101064.31;4998076;28;45376;-73
2023/07/08 13:03:29;;;;;;;;;4.75;4.75;;;;;38.41;25.87;101067.59;4997539;28;45334;-72
2023/07/08 13:05:57;;;;;;;;;6.00;6.00;;;;;38.45;25.30;101052.81;4998270;28;45388;-72
2023/07/08 13:08:25;;;;;;;;;5.00;3.75;;;;;38.52;25.70;101066.75;4984645;28;46624;-72
2023/07/08 13:10:55;;;;;;;;;7.00;6.00;;;;;38.38;25.41;101059.66;4997472;28;45432;-71
2023/07/08 13:13:28;;;;;;;;;3.75;3.75;;;;;38.36;25.65;101056.28;4998112;28;45401;-72
2023/07/08 13:15:54;;;;;;;;;5.75;5.50;;;;;38.44;25.49;101064.31;4997018;28;45434;-73
2023/07/08 13:18:40;;;;;;;;;4.50;4.50;;;;;38.37;25.76;101057.97;4997363;28;46196;-72
2023/07/08 13:21:09;;;;;;;;;6.00;5.00;;;;;38.45;25.25;101071.63;4997297;28;45256;-73
2023/07/08 13:23:37;;;;;;;;;5.50;4.00;;;;;38.49;25.28;101067.22;5009536;28;45354;-74
2023/07/08 13:26:20;;;;;;;;;4.25;4.25;;;;;38.55;25.98;101064.28;4998986;28;45401;-72
2023/07/08 13:28:48;;;;;;;;;5.00;5.00;;;;;38.70;25.38;101057.34;5017011;28;46074;-72
2023/07/08 13:31:17;;;;;;;;;7.00;5.25;;;;;38.71;25.28;101056.25;5016583;28;45482;-74
2023/07/08 13:33:54;;;;;;;;;5.00;5.00;;;;;38.72;24.94;101058.78;5017052;28;45524;-73
2023/07/08 13:36:24;;;;;;;;;4.50;4.25;;;;;38.87;24.57;101056.31;5016924;28;45273;-72
2023/07/08 13:38:51;;;;;;;;;3.50;3.50;;;;;38.87;24.09;101047.03;5005638;28;46424;-73
2023/07/08 13:41:22;;;;;;;;;5.50;4.25;;;;;39.03;24.46;101048.22;4997171;28;45291;-72
2023/07/08 13:43:49;;;;;;;;;5.50;3.00;;;;;38.94;23.82;101037.41;4996828;28;45488;-72
2023/07/08 13:46:30;;;;;;;;;4.50;4.00;;;;;39.09;23.93;101050.00;4996616;28;45398;-73
2023/07/08 13:48:59;;;;;;;;;4.50;4.50;;;;;39.21;24.02;101045.22;4996914;28;45460;-73
2023/07/08 13:51:30;;;;;;;;;3.25;3.25;;;;;39.29;23.74;101036.38;4996313;28;45510;-73
2023/07/08 13:54:07;;;;;;;;;5.00;5.00;;;;;39.44;23.82;101039.50;4997153;28;45457;-73
2023/07/08 13:56:34;;;;;;;;;6.00;4.50;;;;;39.46;23.77;101039.25;4996586;28;45323;-72
2023/07/08 13:59:10;;;;;;;;;5.00;3.25;;;;;39.43;23.53;101029.38;4996779;28;45355;-73
2023/07/08 14:01:39;;;;;;;;;4.25;3.75;;;;;39.59;23.35;101033.28;4978546;28;45509;-74
2023/07/08 14:04:05;;;;;;;;;4.00;4.00;;;;;39.59;23.68;101028.53;4996864;28;45345;-73
2023/07/08 14:06:36;;;;;;;;;3.75;3.75;;;;;39.54;23.53;101030.41;4996154;28;45554;-73
2023/07/08 14:09:18;;;;;;;;;4.00;4.00;;;;;39.73;23.89;101037.44;4996510;28;45429;-72
2023/07/08 14:11:45;;;;;;;;;3.50;3.50;;;;;39.70;23.04;101029.56;4996376;28;45336;-73
2023/07/08 14:14:11;;;;;;;;;4.00;4.00;;;;;39.66;23.03;101042.38;4996649;28;45377;-72
2023/07/08 14:16:41;;;;;;;;;4.00;3.25;;;;;39.77;23.50;101033.03;4996332;28;45326;-73
2023/07/08 14:19:11;;;;;;;;;5.00;4.00;;;;;39.79;23.33;101036.44;4996129;28;45340;-72
2023/07/08 14:21:36;;;;;;;;;5.50;4.25;;;;;39.70;22.97;101050.06;4996263;28;45339;-71
2023/07/08 14:24:08;;;;;;;;;4.00;3.75;;;;;39.82;22.49;101040.66;4996153;28;45340;-74
2023/07/08 14:26:33;;;;;;;;;3.50;3.50;;;;;39.87;22.62;101044.47;4995186;28;45374;-73
2023/07/08 14:28:58;;;;;;;;;4.00;3.00;;;;;39.85;22.63;101045.81;4996021;28;45307;-72
2023/07/08 14:31:25;;;;;;;;;6.00;5.25;;;;;39.90;22.97;101041.13;4996059;28;45631;-73
2023/07/08 14:34:02;;;;;;;;;6.00;4.25;;;;;39.86;22.52;101037.13;4996640;28;45557;-71
2023/07/08 14:36:28;;;;;;;;;7.00;5.00;;;;;39.79;23.14;101036.44;4998741;28;46395;-73
2023/07/08 14:38:53;;;;;;;;;3.00;3.00;;;;;39.80;22.58;101023.25;5004081;28;46050;-72
2023/07/08 14:41:18;;;;;;;;;5.50;3.75;;;;;39.86;23.08;101034.34;4996390;28;45221;-72
2023/07/08 14:43:44;;;;;;;;;3.75;3.00;;;;;39.79;22.88;101029.97;4995916;28;45321;-72
2023/07/08 14:46:10;;;;;;;;;4.50;4.50;;;;;39.78;23.39;101039.50;4995960;28;45332;-73
2023/07/08 14:48:35;;;;;;;;;4.50;4.00;;;;;39.79;23.04;101029.97;4995784;28;45443;-73
2023/07/08 14:51:01;;;;;;;;;6.50;3.50;;;;;39.79;22.66;101038.38;4995794;28;45392;-73
2023/07/08 14:53:26;;;;;;;;;5.00;5.00;;;;;39.79;22.43;101027.16;4995724;28;45574;-72
2023/07/08 14:55:54;;;;;;;;;5.00;5.00;;;;;39.79;23.39;101013.97;4996069;28;45305;-73
2023/07/08 14:58:29;;;;;;;;;3.50;3.50;;;;;39.90;23.59;101010.22;4995680;28;46159;-72
2023/07/08 15:00:56;;;;;;;;;2.50;2.50;;;;;39.89;22.36;101016.13;4995829;28;45418;-73
2023/07/08 15:03:23;;;;;;;;;7.50;4.50;;;;;39.78;22.79;101012.28;5010731;28;45481;-72
2023/07/08 15:05:49;;;;;;;;;5.00;4.25;;;;;39.92;22.96;101016.44;4997122;28;46832;-73
2023/07/08 15:08:14;;;;;;;;;4.50;3.00;;;;;40.03;22.68;101009.03;5014648;28;45336;-72
2023/07/08 15:10:45;;;;;;;;;7.00;5.00;;;;;40.13;22.83;101014.81;5015673;28;45315;-72
2023/07/08 15:13:10;;;;;;;;;5.00;5.00;;;;;40.11;22.57;101013.34;5015552;28;45492;-71
2023/07/08 15:15:36;;;;;;;;;6.50;6.50;;;;;40.11;22.01;101008.59;5015380;28;45325;-73
2023/07/08 15:18:05;;;;;;;;;3.75;3.75;;;;;40.10;22.37;101006.88;5015227;28;46011;-74
2023/07/08 15:20:32;;;;;;;;;7.00;4.75;;;;;40.01;22.30;101012.09;4996014;28;45368;-71
2023/07/08 15:22:58;;;;;;;;;3.00;3.00;;;;;39.99;23.15;101011.50;5015248;28;45330;-73
2023/07/08 15:25:24;;;;;;;;;2.25;2.25;;;;;39.97;22.31;101016.53;5014833;28;45537;-73
2023/07/08 15:27:54;;;;;;;;;5.00;4.50;;;;;39.78;21.86;101017.03;4997632;28;45410;-72
2023/07/08 15:30:24;;;;;;;;;4.25;4.25;;;;;39.72;22.01;101016.97;5014858;28;45551;-69
2023/07/08 15:32:50;;;;;;;;;3.25;3.00;;;;;39.72;22.20;101010.50;5015438;28;45334;-73
2023/07/08 15:35:25;;;;;;;;;5.00;5.00;;;;;39.72;22.70;101007.69;4997156;28;46734;-76
2023/07/08 15:37:51;;;;;;;;;6.50;6.50;;;;;39.73;22.41;101000.94;5012064;28;46116;-74
2023/07/08 15:40:19;;;;;;;;;4.00;4.00;;;;;39.93;22.36;100998.50;4998342;28;45310;-74
2023/07/08 15:42:47;;;;;;;;;5.00;3.75;;;;;39.87;21.62;101012.72;5015510;28;45733;-73
2023/07/08 15:45:23;;;;;;;;;5.00;4.25;;;;;39.87;21.72;101005.16;5009338;28;45510;-73
2023/07/08 15:47:48;;;;;;;;;4.00;4.00;;;;;39.78;21.54;101011.41;4994923;28;46521;-73
2023/07/08 15:50:17;;;;;;;;;5.00;4.50;;;;;39.80;21.58;101006.41;4994856;28;45329;-75
2023/07/08 15:52:43;;;;;;;;;3.25;3.25;;;;;39.97;21.99;100998.84;4994855;28;45519;-73
2023/07/08 15:55:10;;;;;;;;;4.75;4.00;;;;;40.09;22.18;101013.59;4994625;28;45342;-75
2023/07/08 15:58:04;;;;;;;;;2.25;2.25;;;;;40.15;22.12;101017.34;4994876;28;46241;-75
2023/07/08 16:00:33;;;;;;;;;2.75;2.75;;;;;40.24;22.05;101010.19;4994552;28;45148;-72
2023/07/08 16:03:03;;;;;;;;;5.00;5.00;;;;;40.35;22.12;101003.59;4995043;28;45472;-73
2023/07/08 16:05:33;;;;;;;;;5.00;3.25;;;;;40.48;21.88;101006.03;4995272;28;46308;-75
2023/07/08 16:07:59;;;;;;;;;3.50;2.00;;;;;40.55;21.34;101011.47;4996226;28;46242;-74
2023/07/08 16:10:25;;;;;;;;;2.25;2.25;;;;;40.71;20.56;101007.75;4996052;28;45410;-75